Rockland, WI (54653)

2:21 AM CST on March 04, 2015 (GMT -0600)
Hickory Hill | Change Station
CLOSE
Current Station
Personal Weather Station
Location: Burns, WI
Elevation: 850 ft
Nearby Weather Stations

Elev 850 ft 43.91 °N, 90.97 °W | Updated 4 seconds ago

Partly Cloudy
Partly Cloudy
9.5 °F
Feels Like 10 °F
N
0.0
Wind Variable Wind from NW
Gusts 0.0 mph

Today
High -- | Low -- °F
--% Chance of Precip.
Yesterday
High -- | Low -- °F
Precip. -- in
6:35 AM 5:55 PM
Waxing Gibbous, 98% visible
Pressure 30.00 in
Visibility 10.0 miles
Clouds Scattered Clouds 2700 ft
Windchill 10 °F
Dew Point 0 °F
Humidity 66%
Rainfall 0.00 in
Snow Depth Not available.
UV 0 out of 12
Pollen .40 out of 12
Air Quality Not available.
Flu Activity Not available.
METAR KCMY 040755Z AUTO 29009G16KT 10SM SCT027 M11/M16 A3000 RMK AO2 T11111161

More Conditions Fewer Conditions

Pressure 30.00 in
Visibility 10.0 miles
Clouds Scattered Clouds 2700 ft
Windchill 10 °F
Dew Point 0 °F
Humidity 66%
Rainfall 0.00 in
Snow Depth Not available.
UV 0 out of 12
Pollen .40 out of 12
Air Quality Not available.
Flu Activity Not available.
METAR KCMY 040755Z AUTO 29009G16KT 10SM SCT027 M11/M16 A3000 RMK AO2 T11111161

More Conditions Fewer Conditions

10-Day Weather Forecast

Almanac

Astronomy

Mar. 04, 2015 Rise Set
Actual Time
Civil Twilight
Nautical Twilight
Astronomical Twilight
Moon
Length of Visible Light
Length of Day
Tomorrow will be .
, % of the Moon is Illuminated

Today's Extremes

State Highs State Lows

Community

WunderPhotos

Upload Photos

1,802,416 photos uploaded!

WunderBlogs® & News

Nearby

Air Quality

  Air Quality AQ Index Pollutant
Not available.

Snow Depth

Station Depth Elevation

Earthquake Activity

City Distance Mag. Time & Date
Minimum magnitude displayed is 2.5.

Coastal Water Temperatures

Place Temperature

Nearby Weather Stations